Quilcene, Washington
Current Conditions -  °F | °C
As of 8:35 AM on Friday 21 Nov 2014 (Local Time) from KPWT Reporting Station
Overcast Overcast  
Wind Chill: 44°   Ceiling: 4100
Heat Index: 46°   Visibility: 8mi
Dew Point: 46°   Wind: 6mph
Humidity: 100%   Direction: 190°S
Pressure: 29.75"   Gusts: NA
Location:  47.82°N, 122.88°W
Report Text: KPWT 211635Z AUTO 19005KT 8SM FEW007 FEW032 OVC041 08/08 A2975 RMK AO1 P0005
Loading
Personal Weather Stations






























Interactive Weather Map New forecast layout! Learn more

10-Day Weather Forecast

Advertisements
Track Severe Weather on mobile